sensor_id;sensor_type;location;lat;lon;timestamp;temperature;humidity
21540;DHT22;10931;52.164;5.518;2023-05-24T00:01:11;24.40;54.10
21540;DHT22;10931;52.164;5.518;2023-05-24T00:03:36;24.50;54.10
21540;DHT22;10931;52.164;5.518;2023-05-24T00:06:04;24.40;54.10
21540;DHT22;10931;52.164;5.518;2023-05-24T00:08:32;24.40;54.10
21540;DHT22;10931;52.164;5.518;2023-05-24T00:10:58;24.40;54.10
21540;DHT22;10931;52.164;5.518;2023-05-24T00:13:24;24.40;54.10
21540;DHT22;10931;52.164;5.518;2023-05-24T00:15:49;24.40;54.20
21540;DHT22;10931;52.164;5.518;2023-05-24T00:18:15;24.40;54.20
21540;DHT22;10931;52.164;5.518;2023-05-24T00:20:43;24.40;54.20
21540;DHT22;10931;52.164;5.518;2023-05-24T00:23:16;24.40;54.20
21540;DHT22;10931;52.164;5.518;2023-05-24T00:25:44;24.30;54.20
21540;DHT22;10931;52.164;5.518;2023-05-24T00:28:09;24.30;54.20
21540;DHT22;10931;52.164;5.518;2023-05-24T00:30:42;24.30;54.20
21540;DHT22;10931;52.164;5.518;2023-05-24T00:33:08;24.30;54.20
21540;DHT22;10931;52.164;5.518;2023-05-24T00:35:41;24.30;54.20
21540;DHT22;10931;52.164;5.518;2023-05-24T00:38:06;24.30;54.20
21540;DHT22;10931;52.164;5.518;2023-05-24T00:40:32;24.20;54.20
21540;DHT22;10931;52.164;5.518;2023-05-24T00:42:57;24.20;54.20
21540;DHT22;10931;52.164;5.518;2023-05-24T00:45:23;24.20;54.20
21540;DHT22;10931;52.164;5.518;2023-05-24T00:47:49;24.20;54.20
21540;DHT22;10931;52.164;5.518;2023-05-24T00:50:20;24.20;54.20
21540;DHT22;10931;52.164;5.518;2023-05-24T00:52:46;24.20;54.30
21540;DHT22;10931;52.164;5.518;2023-05-24T00:55:13;24.20;54.30
21540;DHT22;10931;52.164;5.518;2023-05-24T00:57:39;24.10;54.20
21540;DHT22;10931;52.164;5.518;2023-05-24T01:00:06;24.20;54.30
21540;DHT22;10931;52.164;5.518;2023-05-24T01:02:32;24.10;54.20
21540;DHT22;10931;52.164;5.518;2023-05-24T01:04:58;24.10;54.30
21540;DHT22;10931;52.164;5.518;2023-05-24T01:07:40;24.10;54.30
21540;DHT22;10931;52.164;5.518;2023-05-24T01:10:31;24.10;54.30
21540;DHT22;10931;52.164;5.518;2023-05-24T01:13:15;24.10;54.30
21540;DHT22;10931;52.164;5.518;2023-05-24T01:15:53;24.00;54.30
21540;DHT22;10931;52.164;5.518;2023-05-24T01:18:32;24.00;54.30
21540;DHT22;10931;52.164;5.518;2023-05-24T01:21:27;24.00;55.00
21540;DHT22;10931;52.164;5.518;2023-05-24T01:29:22;24.00;54.30
21540;DHT22;10931;52.164;5.518;2023-05-24T01:32:02;24.00;54.30
21540;DHT22;10931;52.164;5.518;2023-05-24T01:34:30;24.00;54.40
21540;DHT22;10931;52.164;5.518;2023-05-24T01:36:56;23.90;54.30
21540;DHT22;10931;52.164;5.518;2023-05-24T01:39:24;23.90;54.30
21540;DHT22;10931;52.164;5.518;2023-05-24T01:50:25;23.90;54.40
21540;DHT22;10931;52.164;5.518;2023-05-24T01:52:51;23.80;54.30
21540;DHT22;10931;52.164;5.518;2023-05-24T01:55:18;23.80;54.30
21540;DHT22;10931;52.164;5.518;2023-05-24T01:57:46;23.80;54.30
21540;DHT22;10931;52.164;5.518;2023-05-24T02:00:17;23.80;54.40
21540;DHT22;10931;52.164;5.518;2023-05-24T02:02:57;23.80;54.40
21540;DHT22;10931;52.164;5.518;2023-05-24T02:05:22;23.80;54.40
21540;DHT22;10931;52.164;5.518;2023-05-24T02:07:48;23.80;54.40
21540;DHT22;10931;52.164;5.518;2023-05-24T02:10:15;23.70;54.30
21540;DHT22;10931;52.164;5.518;2023-05-24T02:12:54;23.70;54.40
21540;DHT22;10931;52.164;5.518;2023-05-24T02:15:20;23.70;54.40
21540;DHT22;10931;52.164;5.518;2023-05-24T02:17:51;23.70;54.40
21540;DHT22;10931;52.164;5.518;2023-05-24T02:20:19;23.70;54.40
21540;DHT22;10931;52.164;5.518;2023-05-24T02:22:47;23.70;54.40
21540;DHT22;10931;52.164;5.518;2023-05-24T02:25:13;23.60;54.40
21540;DHT22;10931;52.164;5.518;2023-05-24T02:27:38;23.60;54.40
21540;DHT22;10931;52.164;5.518;2023-05-24T02:30:05;23.60;54.40
21540;DHT22;10931;52.164;5.518;2023-05-24T02:32:41;23.60;54.40
21540;DHT22;10931;52.164;5.518;2023-05-24T02:35:07;23.60;54.40
21540;DHT22;10931;52.164;5.518;2023-05-24T02:37:33;23.60;54.40
21540;DHT22;10931;52.164;5.518;2023-05-24T02:40:02;23.60;54.40
21540;DHT22;10931;52.164;5.518;2023-05-24T02:42:28;23.50;54.40
21540;DHT22;10931;52.164;5.518;2023-05-24T02:44:54;23.60;54.40
21540;DHT22;10931;52.164;5.518;2023-05-24T02:47:19;23.50;54.40
21540;DHT22;10931;52.164;5.518;2023-05-24T02:49:55;23.50;54.40
21540;DHT22;10931;52.164;5.518;2023-05-24T02:52:24;23.50;54.40
21540;DHT22;10931;52.164;5.518;2023-05-24T02:54:51;23.50;54.40
21540;DHT22;10931;52.164;5.518;2023-05-24T02:57:17;23.50;54.40
21540;DHT22;10931;52.164;5.518;2023-05-24T02:59:42;23.50;54.40
21540;DHT22;10931;52.164;5.518;2023-05-24T03:02:08;23.50;54.50
21540;DHT22;10931;52.164;5.518;2023-05-24T03:04:35;23.50;54.50
21540;DHT22;10931;52.164;5.518;2023-05-24T03:07:00;23.50;54.50
21540;DHT22;10931;52.164;5.518;2023-05-24T03:09:36;23.50;54.50
21540;DHT22;10931;52.164;5.518;2023-05-24T03:12:02;23.40;54.40
21540;DHT22;10931;52.164;5.518;2023-05-24T03:14:28;23.40;55.10
21540;DHT22;10931;52.164;5.518;2023-05-24T03:16:54;23.40;54.50
21540;DHT22;10931;52.164;5.518;2023-05-24T03:19:21;23.30;54.40
21540;DHT22;10931;52.164;5.518;2023-05-24T03:21:47;23.40;54.50
21540;DHT22;10931;52.164;5.518;2023-05-24T03:24:13;23.40;54.50
21540;DHT22;10931;52.164;5.518;2023-05-24T03:26:41;23.30;54.40
21540;DHT22;10931;52.164;5.518;2023-05-24T03:29:07;23.30;54.50
21540;DHT22;10931;52.164;5.518;2023-05-24T03:31:33;23.30;54.40
21540;DHT22;10931;52.164;5.518;2023-05-24T03:33:58;23.30;54.50
21540;DHT22;10931;52.164;5.518;2023-05-24T03:36:30;23.30;54.50
21540;DHT22;10931;52.164;5.518;2023-05-24T03:38:57;23.30;54.50
21540;DHT22;10931;52.164;5.518;2023-05-24T03:41:23;23.30;54.50
21540;DHT22;10931;52.164;5.518;2023-05-24T03:43:51;23.30;54.50
21540;DHT22;10931;52.164;5.518;2023-05-24T03:46:17;23.20;54.40
21540;DHT22;10931;52.164;5.518;2023-05-24T03:48:43;23.20;54.50
21540;DHT22;10931;52.164;5.518;2023-05-24T03:51:09;23.20;54.50
21540;DHT22;10931;52.164;5.518;2023-05-24T03:53:34;23.20;54.50
21540;DHT22;10931;52.164;5.518;2023-05-24T03:56:00;23.20;54.50
21540;DHT22;10931;52.164;5.518;2023-05-24T03:58:26;23.20;54.50
21540;DHT22;10931;52.164;5.518;2023-05-24T04:00:52;23.20;54.50
21540;DHT22;10931;52.164;5.518;2023-05-24T04:03:18;23.20;54.50
21540;DHT22;10931;52.164;5.518;2023-05-24T04:05:50;23.10;54.50
21540;DHT22;10931;52.164;5.518;2023-05-24T04:08:16;23.20;54.50
21540;DHT22;10931;52.164;5.518;2023-05-24T04:10:42;23.10;54.50
21540;DHT22;10931;52.164;5.518;2023-05-24T04:13:08;23.00;54.50
21540;DHT22;10931;52.164;5.518;2023-05-24T04:15:34;23.10;54.50
21540;DHT22;10931;52.164;5.518;2023-05-24T04:18:00;23.10;54.50
21540;DHT22;10931;52.164;5.518;2023-05-24T04:20:27;23.00;54.50
21540;DHT22;10931;52.164;5.518;2023-05-24T04:22:54;23.00;54.50
21540;DHT22;10931;52.164;5.518;2023-05-24T04:25:20;23.00;54.50
21540;DHT22;10931;52.164;5.518;2023-05-24T04:27:46;23.00;54.50
21540;DHT22;10931;52.164;5.518;2023-05-24T04:30:15;23.00;54.50
21540;DHT22;10931;52.164;5.518;2023-05-24T04:32:42;23.00;54.50
21540;DHT22;10931;52.164;5.518;2023-05-24T04:35:11;23.00;54.50
21540;DHT22;10931;52.164;5.518;2023-05-24T04:37:36;22.90;54.50
21540;DHT22;10931;52.164;5.518;2023-05-24T04:40:02;23.00;54.50
21540;DHT22;10931;52.164;5.518;2023-05-24T04:42:29;23.00;54.50
21540;DHT22;10931;52.164;5.518;2023-05-24T04:44:56;22.90;54.50
21540;DHT22;10931;52.164;5.518;2023-05-24T04:47:22;22.90;54.50
21540;DHT22;10931;52.164;5.518;2023-05-24T04:49:48;22.90;54.50
21540;DHT22;10931;52.164;5.518;2023-05-24T04:52:23;22.90;54.50
21540;DHT22;10931;52.164;5.518;2023-05-24T04:54:48;22.90;54.50
21540;DHT22;10931;52.164;5.518;2023-05-24T04:57:15;22.90;54.50
21540;DHT22;10931;52.164;5.518;2023-05-24T04:59:42;22.90;54.50
21540;DHT22;10931;52.164;5.518;2023-05-24T05:02:07;22.90;54.50
21540;DHT22;10931;52.164;5.518;2023-05-24T05:04:35;22.90;54.50
21540;DHT22;10931;52.164;5.518;2023-05-24T05:07:02;22.80;54.50
21540;DHT22;10931;52.164;5.518;2023-05-24T05:09:28;22.80;54.50
21540;DHT22;10931;52.164;5.518;2023-05-24T05:11:53;22.80;54.50
21540;DHT22;10931;52.164;5.518;2023-05-24T05:14:19;22.80;54.50
21540;DHT22;10931;52.164;5.518;2023-05-24T05:16:45;22.80;54.50
21540;DHT22;10931;52.164;5.518;2023-05-24T05:19:14;22.70;54.50
21540;DHT22;10931;52.164;5.518;2023-05-24T05:21:40;22.80;54.50
21540;DHT22;10931;52.164;5.518;2023-05-24T05:24:06;22.70;54.50
21540;DHT22;10931;52.164;5.518;2023-05-24T05:26:31;22.70;54.50
21540;DHT22;10931;52.164;5.518;2023-05-24T05:28:57;22.70;54.50
21540;DHT22;10931;52.164;5.518;2023-05-24T05:31:23;22.70;54.50
21540;DHT22;10931;52.164;5.518;2023-05-24T05:33:49;22.70;54.50
21540;DHT22;10931;52.164;5.518;2023-05-24T05:36:15;22.70;54.50
21540;DHT22;10931;52.164;5.518;2023-05-24T05:38:41;22.70;54.50
21540;DHT22;10931;52.164;5.518;2023-05-24T05:41:06;22.60;54.50
21540;DHT22;10931;52.164;5.518;2023-05-24T05:43:32;22.70;54.50
21540;DHT22;10931;52.164;5.518;2023-05-24T05:45:58;22.70;54.60
21540;DHT22;10931;52.164;5.518;2023-05-24T05:48:25;22.70;54.60
21540;DHT22;10931;52.164;5.518;2023-05-24T05:50:51;22.60;54.50
21540;DHT22;10931;52.164;5.518;2023-05-24T05:53:16;22.60;55.30
21540;DHT22;10931;52.164;5.518;2023-05-24T05:55:42;22.60;54.60
21540;DHT22;10931;52.164;5.518;2023-05-24T05:58:07;22.60;54.60
21540;DHT22;10931;52.164;5.518;2023-05-24T06:00:33;22.60;54.60
21540;DHT22;10931;52.164;5.518;2023-05-24T06:02:59;22.60;54.60
21540;DHT22;10931;52.164;5.518;2023-05-24T06:05:28;22.60;54.60
21540;DHT22;10931;52.164;5.518;2023-05-24T06:07:57;22.60;54.60
21540;DHT22;10931;52.164;5.518;2023-05-24T06:10:35;22.60;54.60
21540;DHT22;10931;52.164;5.518;2023-05-24T06:13:02;22.60;54.60
21540;DHT22;10931;52.164;5.518;2023-05-24T06:15:29;22.50;54.60
21540;DHT22;10931;52.164;5.518;2023-05-24T06:18:04;22.50;54.60
21540;DHT22;10931;52.164;5.518;2023-05-24T06:20:29;22.50;54.60
21540;DHT22;10931;52.164;5.518;2023-05-24T06:22:55;22.50;54.60
21540;DHT22;10931;52.164;5.518;2023-05-24T06:25:24;22.50;54.70
21540;DHT22;10931;52.164;5.518;2023-05-24T06:27:51;22.50;54.60
21540;DHT22;10931;52.164;5.518;2023-05-24T06:30:20;22.50;54.70
21540;DHT22;10931;52.164;5.518;2023-05-24T06:32:46;22.50;54.60
21540;DHT22;10931;52.164;5.518;2023-05-24T06:35:12;22.50;54.60
21540;DHT22;10931;52.164;5.518;2023-05-24T06:37:38;22.50;54.70
21540;DHT22;10931;52.164;5.518;2023-05-24T06:40:06;22.50;54.70
21540;DHT22;10931;52.164;5.518;2023-05-24T06:42:33;22.50;54.70
21540;DHT22;10931;52.164;5.518;2023-05-24T06:45:05;22.40;54.60
21540;DHT22;10931;52.164;5.518;2023-05-24T06:51:17;22.50;54.70
21540;DHT22;10931;52.164;5.518;2023-05-24T06:53:43;22.50;54.70
21540;DHT22;10931;52.164;5.518;2023-05-24T06:56:09;22.40;54.70
21540;DHT22;10931;52.164;5.518;2023-05-24T06:58:35;22.40;54.70
21540;DHT22;10931;52.164;5.518;2023-05-24T07:01:01;22.40;54.70
21540;DHT22;10931;52.164;5.518;2023-05-24T07:03:31;22.40;54.70
21540;DHT22;10931;52.164;5.518;2023-05-24T07:05:57;22.40;54.70
21540;DHT22;10931;52.164;5.518;2023-05-24T07:08:24;22.40;54.70
21540;DHT22;10931;52.164;5.518;2023-05-24T07:10:49;22.40;54.70
21540;DHT22;10931;52.164;5.518;2023-05-24T07:13:16;22.40;54.80
21540;DHT22;10931;52.164;5.518;2023-05-24T07:15:42;22.40;54.70
21540;DHT22;10931;52.164;5.518;2023-05-24T07:18:07;22.40;54.70
21540;DHT22;10931;52.164;5.518;2023-05-24T07:20:33;22.40;54.70
21540;DHT22;10931;52.164;5.518;2023-05-24T07:23:00;22.40;54.70
21540;DHT22;10931;52.164;5.518;2023-05-24T07:25:26;22.40;54.80
21540;DHT22;10931;52.164;5.518;2023-05-24T07:27:52;22.40;54.70
21540;DHT22;10931;52.164;5.518;2023-05-24T07:30:18;22.40;54.80
21540;DHT22;10931;52.164;5.518;2023-05-24T07:32:44;22.40;54.70
21540;DHT22;10931;52.164;5.518;2023-05-24T07:35:11;22.40;54.70
21540;DHT22;10931;52.164;5.518;2023-05-24T07:37:40;22.40;54.80
21540;DHT22;10931;52.164;5.518;2023-05-24T07:40:07;22.40;54.70
21540;DHT22;10931;52.164;5.518;2023-05-24T07:42:37;22.30;54.70
21540;DHT22;10931;52.164;5.518;2023-05-24T07:45:04;22.30;54.70
21540;DHT22;10931;52.164;5.518;2023-05-24T07:47:29;22.30;54.70
21540;DHT22;10931;52.164;5.518;2023-05-24T07:49:55;22.40;54.70
21540;DHT22;10931;52.164;5.518;2023-05-24T07:52:21;22.30;54.70
21540;DHT22;10931;52.164;5.518;2023-05-24T07:54:50;22.30;54.70
21540;DHT22;10931;52.164;5.518;2023-05-24T07:57:19;22.40;54.70
21540;DHT22;10931;52.164;5.518;2023-05-24T07:59:45;22.30;54.70
21540;DHT22;10931;52.164;5.518;2023-05-24T08:02:11;22.30;54.70
21540;DHT22;10931;52.164;5.518;2023-05-24T08:04:41;22.30;54.70
21540;DHT22;10931;52.164;5.518;2023-05-24T08:07:08;22.40;54.70
21540;DHT22;10931;52.164;5.518;2023-05-24T08:09:34;22.30;54.70
21540;DHT22;10931;52.164;5.518;2023-05-24T08:12:06;22.30;54.70
21540;DHT22;10931;52.164;5.518;2023-05-24T08:14:32;22.30;54.70
21540;DHT22;10931;52.164;5.518;2023-05-24T08:16:58;22.30;54.60
21540;DHT22;10931;52.164;5.518;2023-05-24T08:19:25;22.30;54.70
21540;DHT22;10931;52.164;5.518;2023-05-24T08:21:53;22.30;54.70
21540;DHT22;10931;52.164;5.518;2023-05-24T08:24:19;22.30;54.70
21540;DHT22;10931;52.164;5.518;2023-05-24T08:26:45;22.30;54.70
21540;DHT22;10931;52.164;5.518;2023-05-24T08:29:11;22.30;54.70
21540;DHT22;10931;52.164;5.518;2023-05-24T08:31:36;22.30;54.70
21540;DHT22;10931;52.164;5.518;2023-05-24T08:34:03;22.30;54.70
21540;DHT22;10931;52.164;5.518;2023-05-24T08:36:28;22.30;54.70
21540;DHT22;10931;52.164;5.518;2023-05-24T08:38:54;22.30;54.70
21540;DHT22;10931;52.164;5.518;2023-05-24T08:41:20;22.30;54.70
21540;DHT22;10931;52.164;5.518;2023-05-24T08:43:47;22.30;54.70
21540;DHT22;10931;52.164;5.518;2023-05-24T08:46:15;22.30;54.70
21540;DHT22;10931;52.164;5.518;2023-05-24T08:48:44;22.30;54.60
21540;DHT22;10931;52.164;5.518;2023-05-24T08:51:15;22.30;54.70
21540;DHT22;10931;52.164;5.518;2023-05-24T08:53:41;22.30;54.60
21540;DHT22;10931;52.164;5.518;2023-05-24T08:56:15;22.30;54.60
21540;DHT22;10931;52.164;5.518;2023-05-24T08:58:41;22.30;54.60
21540;DHT22;10931;52.164;5.518;2023-05-24T09:01:08;22.30;54.60
21540;DHT22;10931;52.164;5.518;2023-05-24T09:03:35;22.30;54.70
21540;DHT22;10931;52.164;5.518;2023-05-24T09:06:02;22.30;54.70
21540;DHT22;10931;52.164;5.518;2023-05-24T09:08:28;22.30;54.60
21540;DHT22;10931;52.164;5.518;2023-05-24T09:10:55;22.30;54.60
21540;DHT22;10931;52.164;5.518;2023-05-24T09:13:22;22.30;54.60
21540;DHT22;10931;52.164;5.518;2023-05-24T09:15:49;22.30;54.60
21540;DHT22;10931;52.164;5.518;2023-05-24T09:18:15;22.30;54.60
21540;DHT22;10931;52.164;5.518;2023-05-24T09:20:41;22.30;54.60
21540;DHT22;10931;52.164;5.518;2023-05-24T09:23:06;22.30;54.60
21540;DHT22;10931;52.164;5.518;2023-05-24T09:25:33;22.30;54.60
21540;DHT22;10931;52.164;5.518;2023-05-24T09:28:05;22.30;54.70
21540;DHT22;10931;52.164;5.518;2023-05-24T09:30:30;22.30;54.60
21540;DHT22;10931;52.164;5.518;2023-05-24T09:32:57;22.30;54.70
21540;DHT22;10931;52.164;5.518;2023-05-24T09:35:24;22.30;54.70
21540;DHT22;10931;52.164;5.518;2023-05-24T09:37:56;22.30;54.60
21540;DHT22;10931;52.164;5.518;2023-05-24T09:40:24;22.30;54.60
21540;DHT22;10931;52.164;5.518;2023-05-24T09:43:07;22.30;54.60
21540;DHT22;10931;52.164;5.518;2023-05-24T09:45:44;22.30;54.60
21540;DHT22;10931;52.164;5.518;2023-05-24T09:48:15;22.30;54.60
21540;DHT22;10931;52.164;5.518;2023-05-24T09:50:42;22.30;54.60
21540;DHT22;10931;52.164;5.518;2023-05-24T09:53:18;22.30;54.60
21540;DHT22;10931;52.164;5.518;2023-05-24T09:55:47;22.30;54.70
21540;DHT22;10931;52.164;5.518;2023-05-24T09:58:13;22.30;54.60
21540;DHT22;10931;52.164;5.518;2023-05-24T10:00:41;22.30;54.60
21540;DHT22;10931;52.164;5.518;2023-05-24T10:03:08;22.30;54.60
21540;DHT22;10931;52.164;5.518;2023-05-24T10:05:41;22.30;54.60
21540;DHT22;10931;52.164;5.518;2023-05-24T10:08:07;22.30;54.60
21540;DHT22;10931;52.164;5.518;2023-05-24T10:10:34;22.30;54.50
21540;DHT22;10931;52.164;5.518;2023-05-24T10:13:01;22.30;54.50
21540;DHT22;10931;52.164;5.518;2023-05-24T10:15:27;22.30;54.50
21540;DHT22;10931;52.164;5.518;2023-05-24T10:17:54;22.30;54.50
21540;DHT22;10931;52.164;5.518;2023-05-24T10:20:20;22.30;54.50
21540;DHT22;10931;52.164;5.518;2023-05-24T10:22:58;22.30;54.50
21540;DHT22;10931;52.164;5.518;2023-05-24T10:25:27;22.30;54.50
21540;DHT22;10931;52.164;5.518;2023-05-24T10:28:05;22.30;54.50
21540;DHT22;10931;52.164;5.518;2023-05-24T10:30:36;22.30;54.50
21540;DHT22;10931;52.164;5.518;2023-05-24T10:33:05;22.30;54.50
21540;DHT22;10931;52.164;5.518;2023-05-24T10:35:33;22.30;54.50
21540;DHT22;10931;52.164;5.518;2023-05-24T10:38:06;22.30;54.50
21540;DHT22;10931;52.164;5.518;2023-05-24T10:40:32;22.30;54.50
21540;DHT22;10931;52.164;5.518;2023-05-24T10:42:58;22.40;54.50
21540;DHT22;10931;52.164;5.518;2023-05-24T10:45:31;22.40;54.50
21540;DHT22;10931;52.164;5.518;2023-05-24T10:48:01;22.40;54.50
21540;DHT22;10931;52.164;5.518;2023-05-24T10:50:27;22.40;54.50
21540;DHT22;10931;52.164;5.518;2023-05-24T10:58:44;22.40;54.50
21540;DHT22;10931;52.164;5.518;2023-05-24T11:01:31;22.40;54.50
21540;DHT22;10931;52.164;5.518;2023-05-24T11:04:14;22.40;54.80
21540;DHT22;10931;52.164;5.518;2023-05-24T11:06:55;22.40;54.50
21540;DHT22;10931;52.164;5.518;2023-05-24T11:09:23;22.40;54.50
21540;DHT22;10931;52.164;5.518;2023-05-24T11:11:53;22.40;54.50
21540;DHT22;10931;52.164;5.518;2023-05-24T11:14:23;22.40;54.50
21540;DHT22;10931;52.164;5.518;2023-05-24T11:16:49;22.40;54.50
21540;DHT22;10931;52.164;5.518;2023-05-24T11:21:47;22.40;54.50
21540;DHT22;10931;52.164;5.518;2023-05-24T11:24:13;22.40;54.50
21540;DHT22;10931;52.164;5.518;2023-05-24T11:26:40;22.40;54.50
21540;DHT22;10931;52.164;5.518;2023-05-24T11:29:06;22.40;54.50
21540;DHT22;10931;52.164;5.518;2023-05-24T11:31:31;22.40;54.50
21540;DHT22;10931;52.164;5.518;2023-05-24T11:33:59;22.40;54.40
21540;DHT22;10931;52.164;5.518;2023-05-24T11:36:25;22.40;54.40
21540;DHT22;10931;52.164;5.518;2023-05-24T11:38:52;22.40;54.40
21540;DHT22;10931;52.164;5.518;2023-05-24T11:41:18;22.40;54.40
21540;DHT22;10931;52.164;5.518;2023-05-24T11:43:44;22.40;54.40
21540;DHT22;10931;52.164;5.518;2023-05-24T11:46:10;22.40;54.30
21540;DHT22;10931;52.164;5.518;2023-05-24T11:48:38;22.50;54.40
21540;DHT22;10931;52.164;5.518;2023-05-24T11:51:04;22.40;54.40
21540;DHT22;10931;52.164;5.518;2023-05-24T11:53:30;22.40;54.40
21540;DHT22;10931;52.164;5.518;2023-05-24T11:55:56;22.50;54.40
21540;DHT22;10931;52.164;5.518;2023-05-24T11:58:28;22.50;54.40
21540;DHT22;10931;52.164;5.518;2023-05-24T12:00:56;22.50;54.40
21540;DHT22;10931;52.164;5.518;2023-05-24T12:03:22;22.50;54.40
21540;DHT22;10931;52.164;5.518;2023-05-24T12:05:48;22.50;54.40
21540;DHT22;10931;52.164;5.518;2023-05-24T12:08:14;22.50;54.30
21540;DHT22;10931;52.164;5.518;2023-05-24T12:10:42;22.50;54.30
21540;DHT22;10931;52.164;5.518;2023-05-24T12:13:22;22.50;54.30
21540;DHT22;10931;52.164;5.518;2023-05-24T12:15:53;22.50;54.30
21540;DHT22;10931;52.164;5.518;2023-05-24T12:18:22;22.50;54.30
21540;DHT22;10931;52.164;5.518;2023-05-24T12:20:49;22.50;54.30
21540;DHT22;10931;52.164;5.518;2023-05-24T12:23:17;22.50;54.30
21540;DHT22;10931;52.164;5.518;2023-05-24T12:25:43;22.50;54.30
21540;DHT22;10931;52.164;5.518;2023-05-24T12:28:08;22.60;54.30
21540;DHT22;10931;52.164;5.518;2023-05-24T12:30:36;22.60;54.30
21540;DHT22;10931;52.164;5.518;2023-05-24T12:33:03;22.60;54.30
21540;DHT22;10931;52.164;5.518;2023-05-24T12:35:29;22.60;54.30
21540;DHT22;10931;52.164;5.518;2023-05-24T12:38:00;22.60;54.30
21540;DHT22;10931;52.164;5.518;2023-05-24T12:40:26;22.60;54.30
21540;DHT22;10931;52.164;5.518;2023-05-24T12:42:52;22.60;54.30
21540;DHT22;10931;52.164;5.518;2023-05-24T12:45:21;22.60;54.20
21540;DHT22;10931;52.164;5.518;2023-05-24T12:47:53;22.60;54.30
21540;DHT22;10931;52.164;5.518;2023-05-24T12:50:24;22.60;54.20
21540;DHT22;10931;52.164;5.518;2023-05-24T12:52:50;22.60;54.20
21540;DHT22;10931;52.164;5.518;2023-05-24T12:55:21;22.70;54.30
21540;DHT22;10931;52.164;5.518;2023-05-24T12:57:47;22.60;54.20
21540;DHT22;10931;52.164;5.518;2023-05-24T13:00:25;22.70;54.20
21540;DHT22;10931;52.164;5.518;2023-05-24T13:02:57;22.70;54.20
21540;DHT22;10931;52.164;5.518;2023-05-24T13:05:25;22.70;54.20
21540;DHT22;10931;52.164;5.518;2023-05-24T13:07:52;22.70;54.20
21540;DHT22;10931;52.164;5.518;2023-05-24T13:10:18;22.70;54.20
21540;DHT22;10931;52.164;5.518;2023-05-24T13:12:45;22.70;54.10
21540;DHT22;10931;52.164;5.518;2023-05-24T13:15:10;22.70;54.10
21540;DHT22;10931;52.164;5.518;2023-05-24T13:17:36;22.70;54.10
21540;DHT22;10931;52.164;5.518;2023-05-24T13:20:04;22.80;54.20
21540;DHT22;10931;52.164;5.518;2023-05-24T13:22:33;22.70;54.10
21540;DHT22;10931;52.164;5.518;2023-05-24T13:25:00;22.80;54.10
21540;DHT22;10931;52.164;5.518;2023-05-24T13:27:27;22.80;54.10
21540;DHT22;10931;52.164;5.518;2023-05-24T13:29:57;22.80;54.10
21540;DHT22;10931;52.164;5.518;2023-05-24T13:32:25;22.80;54.10
21540;DHT22;10931;52.164;5.518;2023-05-24T13:35:00;22.80;54.10
21540;DHT22;10931;52.164;5.518;2023-05-24T13:37:26;22.80;54.10
21540;DHT22;10931;52.164;5.518;2023-05-24T13:39:52;22.80;54.10
21540;DHT22;10931;52.164;5.518;2023-05-24T13:42:24;22.80;54.00
21540;DHT22;10931;52.164;5.518;2023-05-24T13:44:53;22.90;54.10
21540;DHT22;10931;52.164;5.518;2023-05-24T13:47:20;22.90;54.00
21540;DHT22;10931;52.164;5.518;2023-05-24T13:49:47;22.90;54.10
21540;DHT22;10931;52.164;5.518;2023-05-24T13:52:12;22.90;54.00
21540;DHT22;10931;52.164;5.518;2023-05-24T13:54:38;22.90;54.10
21540;DHT22;10931;52.164;5.518;2023-05-24T13:57:04;22.90;54.00
21540;DHT22;10931;52.164;5.518;2023-05-24T13:59:30;22.90;54.00
21540;DHT22;10931;52.164;5.518;2023-05-24T14:01:56;23.00;54.10
21540;DHT22;10931;52.164;5.518;2023-05-24T14:04:22;22.90;54.00
21540;DHT22;10931;52.164;5.518;2023-05-24T14:06:50;23.00;54.10
21540;DHT22;10931;52.164;5.518;2023-05-24T14:09:16;23.00;54.10
21540;DHT22;10931;52.164;5.518;2023-05-24T14:11:46;23.00;54.00
21540;DHT22;10931;52.164;5.518;2023-05-24T14:14:11;23.00;54.10
21540;DHT22;10931;52.164;5.518;2023-05-24T14:16:37;23.00;54.10
21540;DHT22;10931;52.164;5.518;2023-05-24T14:19:06;23.00;54.00
21540;DHT22;10931;52.164;5.518;2023-05-24T14:21:37;23.00;54.00
21540;DHT22;10931;52.164;5.518;2023-05-24T14:24:05;23.00;54.00
21540;DHT22;10931;52.164;5.518;2023-05-24T14:26:35;23.10;54.10
21540;DHT22;10931;52.164;5.518;2023-05-24T14:29:05;23.10;54.10
21540;DHT22;10931;52.164;5.518;2023-05-24T14:31:33;23.10;54.00
21540;DHT22;10931;52.164;5.518;2023-05-24T14:34:06;23.10;54.00
21540;DHT22;10931;52.164;5.518;2023-05-24T14:36:34;23.10;54.00
21540;DHT22;10931;52.164;5.518;2023-05-24T14:39:04;23.20;54.10
21540;DHT22;10931;52.164;5.518;2023-05-24T14:41:34;23.20;54.10
21540;DHT22;10931;52.164;5.518;2023-05-24T14:43:59;23.20;54.10
21540;DHT22;10931;52.164;5.518;2023-05-24T14:46:31;23.20;54.10
21540;DHT22;10931;52.164;5.518;2023-05-24T14:48:56;23.20;54.10
21540;DHT22;10931;52.164;5.518;2023-05-24T14:51:33;23.30;54.10
21540;DHT22;10931;52.164;5.518;2023-05-24T14:53:59;23.30;54.10
21540;DHT22;10931;52.164;5.518;2023-05-24T14:56:45;23.30;54.10
21540;DHT22;10931;52.164;5.518;2023-05-24T14:59:16;23.30;54.10
21540;DHT22;10931;52.164;5.518;2023-05-24T15:01:42;23.30;54.10
21540;DHT22;10931;52.164;5.518;2023-05-24T15:04:08;23.30;54.10
21540;DHT22;10931;52.164;5.518;2023-05-24T15:06:37;23.30;54.10
21540;DHT22;10931;52.164;5.518;2023-05-24T15:09:06;23.40;54.10
21540;DHT22;10931;52.164;5.518;2023-05-24T15:11:34;23.40;54.10
21540;DHT22;10931;52.164;5.518;2023-05-24T15:14:02;23.40;54.10
21540;DHT22;10931;52.164;5.518;2023-05-24T15:16:30;23.40;54.10
21540;DHT22;10931;52.164;5.518;2023-05-24T15:18:59;23.40;54.10
21540;DHT22;10931;52.164;5.518;2023-05-24T15:21:27;23.40;54.10
21540;DHT22;10931;52.164;5.518;2023-05-24T15:23:56;23.40;54.10
21540;DHT22;10931;52.164;5.518;2023-05-24T15:26:21;23.50;54.10
21540;DHT22;10931;52.164;5.518;2023-05-24T15:28:47;23.50;54.10
21540;DHT22;10931;52.164;5.518;2023-05-24T15:31:13;23.50;54.10
21540;DHT22;10931;52.164;5.518;2023-05-24T15:33:39;23.50;54.10
21540;DHT22;10931;52.164;5.518;2023-05-24T15:36:05;23.50;54.10
21540;DHT22;10931;52.164;5.518;2023-05-24T15:38:32;23.50;54.10
21540;DHT22;10931;52.164;5.518;2023-05-24T15:40:58;23.50;54.10
21540;DHT22;10931;52.164;5.518;2023-05-24T15:43:31;23.50;54.10
21540;DHT22;10931;52.164;5.518;2023-05-24T15:46:00;23.50;54.10
21540;DHT22;10931;52.164;5.518;2023-05-24T15:48:26;23.50;54.10
21540;DHT22;10931;52.164;5.518;2023-05-24T15:50:52;23.50;54.10
21540;DHT22;10931;52.164;5.518;2023-05-24T15:53:18;23.50;54.10
21540;DHT22;10931;52.164;5.518;2023-05-24T15:55:44;23.50;54.10
21540;DHT22;10931;52.164;5.518;2023-05-24T15:58:11;23.50;54.10
21540;DHT22;10931;52.164;5.518;2023-05-24T16:00:41;23.50;54.10